sensor_id;sensor_type;location;lat;lon;timestamp;P1;durP1;ratioP1;P2;durP2;ratioP2
71763;SDS011;59602;52.142;5.408;2023-04-12T00:00:53;3.77;;;0.30;;
71763;SDS011;59602;52.142;5.408;2023-04-12T00:03:20;3.38;;;0.35;;
71763;SDS011;59602;52.142;5.408;2023-04-12T00:05:47;4.78;;;0.35;;
71763;SDS011;59602;52.142;5.408;2023-04-12T00:08:21;5.40;;;0.60;;
71763;SDS011;59602;52.142;5.408;2023-04-12T00:10:58;5.38;;;0.40;;
71763;SDS011;59602;52.142;5.408;2023-04-12T00:13:26;4.63;;;0.40;;
71763;SDS011;59602;52.142;5.408;2023-04-12T00:15:53;4.85;;;0.50;;
71763;SDS011;59602;52.142;5.408;2023-04-12T00:18:19;5.07;;;0.45;;
71763;SDS011;59602;52.142;5.408;2023-04-12T00:20:50;4.50;;;0.45;;
71763;SDS011;59602;52.142;5.408;2023-04-12T00:23:17;5.38;;;0.38;;
71763;SDS011;59602;52.142;5.408;2023-04-12T00:25:44;3.17;;;0.30;;
71763;SDS011;59602;52.142;5.408;2023-04-12T00:28:10;3.20;;;0.28;;
71763;SDS011;59602;52.142;5.408;2023-04-12T00:30:37;2.58;;;0.20;;
71763;SDS011;59602;52.142;5.408;2023-04-12T00:33:04;3.35;;;0.22;;
71763;SDS011;59602;52.142;5.408;2023-04-12T00:35:30;1.92;;;0.30;;
71763;SDS011;59602;52.142;5.408;2023-04-12T00:37:57;2.23;;;0.37;;
71763;SDS011;59602;52.142;5.408;2023-04-12T00:40:24;1.80;;;0.20;;
71763;SDS011;59602;52.142;5.408;2023-04-12T00:42:50;4.55;;;0.20;;
71763;SDS011;59602;52.142;5.408;2023-04-12T00:45:17;2.60;;;0.20;;
71763;SDS011;59602;52.142;5.408;2023-04-12T00:47:43;1.38;;;0.10;;
71763;SDS011;59602;52.142;5.408;2023-04-12T00:50:10;2.67;;;0.10;;
71763;SDS011;59602;52.142;5.408;2023-04-12T00:52:37;2.05;;;0.10;;
71763;SDS011;59602;52.142;5.408;2023-04-12T00:55:05;1.63;;;0.17;;
71763;SDS011;59602;52.142;5.408;2023-04-12T00:57:34;2.35;;;0.10;;
71763;SDS011;59602;52.142;5.408;2023-04-12T01:00:03;1.95;;;0.10;;
71763;SDS011;59602;52.142;5.408;2023-04-12T01:02:34;1.17;;;0.17;;
71763;SDS011;59602;52.142;5.408;2023-04-12T01:05:04;1.45;;;0.20;;
71763;SDS011;59602;52.142;5.408;2023-04-12T01:10:15;4.32;;;0.55;;
71763;SDS011;59602;52.142;5.408;2023-04-12T01:13:02;3.60;;;0.22;;
71763;SDS011;59602;52.142;5.408;2023-04-12T01:15:38;1.73;;;0.20;;
71763;SDS011;59602;52.142;5.408;2023-04-12T01:18:11;2.17;;;0.30;;
71763;SDS011;59602;52.142;5.408;2023-04-12T01:20:44;2.42;;;0.20;;
71763;SDS011;59602;52.142;5.408;2023-04-12T01:23:24;2.03;;;0.40;;
71763;SDS011;59602;52.142;5.408;2023-04-12T01:26:11;3.40;;;0.38;;
71763;SDS011;59602;52.142;5.408;2023-04-12T01:28:53;2.60;;;0.30;;
71763;SDS011;59602;52.142;5.408;2023-04-12T01:31:21;2.75;;;0.40;;
71763;SDS011;59602;52.142;5.408;2023-04-12T01:33:51;3.22;;;0.25;;
71763;SDS011;59602;52.142;5.408;2023-04-12T01:36:20;2.50;;;0.20;;
71763;SDS011;59602;52.142;5.408;2023-04-12T01:38:49;2.30;;;0.30;;
71763;SDS011;59602;52.142;5.408;2023-04-12T01:41:16;3.73;;;0.30;;
71763;SDS011;59602;52.142;5.408;2023-04-12T01:43:44;2.95;;;0.30;;
71763;SDS011;59602;52.142;5.408;2023-04-12T01:46:12;1.70;;;0.30;;
71763;SDS011;59602;52.142;5.408;2023-04-12T01:48:44;3.30;;;0.20;;
71763;SDS011;59602;52.142;5.408;2023-04-12T01:51:18;3.15;;;0.68;;
71763;SDS011;59602;52.142;5.408;2023-04-12T01:54:02;2.33;;;0.20;;
71763;SDS011;59602;52.142;5.408;2023-04-12T01:56:37;2.70;;;0.30;;
71763;SDS011;59602;52.142;5.408;2023-04-12T01:59:06;2.38;;;0.30;;
71763;SDS011;59602;52.142;5.408;2023-04-12T02:01:34;2.25;;;0.30;;
71763;SDS011;59602;52.142;5.408;2023-04-12T02:04:02;2.53;;;0.43;;
71763;SDS011;59602;52.142;5.408;2023-04-12T02:06:31;1.17;;;0.20;;
71763;SDS011;59602;52.142;5.408;2023-04-12T02:09:00;1.55;;;0.20;;
71763;SDS011;59602;52.142;5.408;2023-04-12T02:11:28;2.85;;;0.28;;
71763;SDS011;59602;52.142;5.408;2023-04-12T02:13:54;4.10;;;0.30;;
71763;SDS011;59602;52.142;5.408;2023-04-12T02:16:21;3.13;;;0.50;;
71763;SDS011;59602;52.142;5.408;2023-04-12T02:18:49;3.30;;;0.27;;
71763;SDS011;59602;52.142;5.408;2023-04-12T02:21:17;3.63;;;0.20;;
71763;SDS011;59602;52.142;5.408;2023-04-12T02:23:44;2.20;;;0.30;;
71763;SDS011;59602;52.142;5.408;2023-04-12T02:26:10;2.42;;;0.40;;
71763;SDS011;59602;52.142;5.408;2023-04-12T02:28:37;3.58;;;0.52;;
71763;SDS011;59602;52.142;5.408;2023-04-12T02:31:05;2.30;;;0.40;;
71763;SDS011;59602;52.142;5.408;2023-04-12T02:33:32;3.53;;;0.30;;
71763;SDS011;59602;52.142;5.408;2023-04-12T02:36:00;2.38;;;0.30;;
71763;SDS011;59602;52.142;5.408;2023-04-12T02:38:28;5.10;;;0.30;;
71763;SDS011;59602;52.142;5.408;2023-04-12T02:40:54;2.47;;;0.25;;
71763;SDS011;59602;52.142;5.408;2023-04-12T02:43:22;2.43;;;0.23;;
71763;SDS011;59602;52.142;5.408;2023-04-12T02:45:51;1.42;;;0.20;;
71763;SDS011;59602;52.142;5.408;2023-04-12T02:48:17;1.58;;;0.20;;
71763;SDS011;59602;52.142;5.408;2023-04-12T02:50:44;1.95;;;0.20;;
71763;SDS011;59602;52.142;5.408;2023-04-12T02:53:10;2.30;;;0.38;;
71763;SDS011;59602;52.142;5.408;2023-04-12T02:55:37;2.93;;;0.30;;
71763;SDS011;59602;52.142;5.408;2023-04-12T02:58:04;3.75;;;0.50;;
71763;SDS011;59602;52.142;5.408;2023-04-12T03:00:31;1.58;;;0.30;;
71763;SDS011;59602;52.142;5.408;2023-04-12T03:02:58;2.58;;;0.30;;
71763;SDS011;59602;52.142;5.408;2023-04-12T03:05:26;2.83;;;0.22;;
71763;SDS011;59602;52.142;5.408;2023-04-12T03:07:53;4.80;;;0.30;;
71763;SDS011;59602;52.142;5.408;2023-04-12T03:10:20;1.63;;;0.40;;
71763;SDS011;59602;52.142;5.408;2023-04-12T03:12:47;3.13;;;0.28;;
71763;SDS011;59602;52.142;5.408;2023-04-12T03:15:13;2.80;;;0.22;;
71763;SDS011;59602;52.142;5.408;2023-04-12T03:17:40;3.90;;;0.25;;
71763;SDS011;59602;52.142;5.408;2023-04-12T03:20:08;1.87;;;0.20;;
71763;SDS011;59602;52.142;5.408;2023-04-12T03:22:35;1.83;;;0.40;;
71763;SDS011;59602;52.142;5.408;2023-04-12T03:25:03;2.83;;;0.30;;
71763;SDS011;59602;52.142;5.408;2023-04-12T03:27:30;1.70;;;0.20;;
71763;SDS011;59602;52.142;5.408;2023-04-12T03:29:57;2.00;;;0.60;;
71763;SDS011;59602;52.142;5.408;2023-04-12T03:32:23;4.17;;;0.30;;
71763;SDS011;59602;52.142;5.408;2023-04-12T03:34:50;3.28;;;0.30;;
71763;SDS011;59602;52.142;5.408;2023-04-12T03:37:17;2.75;;;0.20;;
71763;SDS011;59602;52.142;5.408;2023-04-12T03:39:44;2.25;;;0.20;;
71763;SDS011;59602;52.142;5.408;2023-04-12T03:42:14;3.30;;;0.20;;
71763;SDS011;59602;52.142;5.408;2023-04-12T03:44:57;2.60;;;0.20;;
71763;SDS011;59602;52.142;5.408;2023-04-12T03:47:23;1.35;;;0.20;;
71763;SDS011;59602;52.142;5.408;2023-04-12T03:49:50;5.80;;;0.40;;
71763;SDS011;59602;52.142;5.408;2023-04-12T03:52:36;1.77;;;0.20;;
71763;SDS011;59602;52.142;5.408;2023-04-12T03:55:03;2.05;;;0.20;;
71763;SDS011;59602;52.142;5.408;2023-04-12T03:57:33;3.60;;;0.50;;
71763;SDS011;59602;52.142;5.408;2023-04-12T04:00:00;2.00;;;0.20;;
71763;SDS011;59602;52.142;5.408;2023-04-12T04:02:26;1.52;;;0.13;;
71763;SDS011;59602;52.142;5.408;2023-04-12T04:04:53;3.58;;;0.38;;
71763;SDS011;59602;52.142;5.408;2023-04-12T04:07:20;3.20;;;0.20;;
71763;SDS011;59602;52.142;5.408;2023-04-12T04:09:48;1.80;;;0.30;;
71763;SDS011;59602;52.142;5.408;2023-04-12T04:12:15;1.88;;;0.30;;
71763;SDS011;59602;52.142;5.408;2023-04-12T04:14:42;1.13;;;0.20;;
71763;SDS011;59602;52.142;5.408;2023-04-12T04:17:09;2.92;;;0.40;;
71763;SDS011;59602;52.142;5.408;2023-04-12T04:19:36;2.05;;;0.30;;
71763;SDS011;59602;52.142;5.408;2023-04-12T04:22:02;1.43;;;0.20;;
71763;SDS011;59602;52.142;5.408;2023-04-12T04:24:29;1.42;;;0.20;;
71763;SDS011;59602;52.142;5.408;2023-04-12T04:26:56;0.90;;;0.10;;
71763;SDS011;59602;52.142;5.408;2023-04-12T04:29:24;3.00;;;0.28;;
71763;SDS011;59602;52.142;5.408;2023-04-12T04:31:51;2.78;;;0.20;;
71763;SDS011;59602;52.142;5.408;2023-04-12T04:34:19;3.13;;;0.20;;
71763;SDS011;59602;52.142;5.408;2023-04-12T04:36:47;1.88;;;0.40;;
71763;SDS011;59602;52.142;5.408;2023-04-12T04:39:14;1.38;;;0.20;;
71763;SDS011;59602;52.142;5.408;2023-04-12T04:41:40;2.80;;;0.28;;
71763;SDS011;59602;52.142;5.408;2023-04-12T04:44:07;3.38;;;0.40;;
71763;SDS011;59602;52.142;5.408;2023-04-12T04:46:36;2.20;;;0.30;;
71763;SDS011;59602;52.142;5.408;2023-04-12T04:49:03;2.33;;;0.30;;
71763;SDS011;59602;52.142;5.408;2023-04-12T04:51:30;3.03;;;0.20;;
71763;SDS011;59602;52.142;5.408;2023-04-12T04:53:57;4.00;;;0.40;;
71763;SDS011;59602;52.142;5.408;2023-04-12T04:56:25;3.38;;;0.40;;
71763;SDS011;59602;52.142;5.408;2023-04-12T04:58:51;2.47;;;0.20;;
71763;SDS011;59602;52.142;5.408;2023-04-12T05:01:22;2.20;;;0.20;;
71763;SDS011;59602;52.142;5.408;2023-04-12T05:03:54;1.45;;;0.20;;
71763;SDS011;59602;52.142;5.408;2023-04-12T05:06:21;3.25;;;0.30;;
71763;SDS011;59602;52.142;5.408;2023-04-12T05:08:49;1.65;;;0.30;;
71763;SDS011;59602;52.142;5.408;2023-04-12T05:11:17;1.83;;;0.30;;
71763;SDS011;59602;52.142;5.408;2023-04-12T05:13:45;1.05;;;0.20;;
71763;SDS011;59602;52.142;5.408;2023-04-12T05:16:13;1.40;;;0.40;;
71763;SDS011;59602;52.142;5.408;2023-04-12T05:18:40;1.60;;;0.35;;
71763;SDS011;59602;52.142;5.408;2023-04-12T05:21:06;1.95;;;0.30;;
71763;SDS011;59602;52.142;5.408;2023-04-12T05:23:34;2.17;;;0.53;;
71763;SDS011;59602;52.142;5.408;2023-04-12T05:26:03;1.63;;;0.30;;
71763;SDS011;59602;52.142;5.408;2023-04-12T05:28:30;1.13;;;0.20;;
71763;SDS011;59602;52.142;5.408;2023-04-12T05:30:56;1.73;;;0.30;;
71763;SDS011;59602;52.142;5.408;2023-04-12T05:33:23;2.15;;;0.20;;
71763;SDS011;59602;52.142;5.408;2023-04-12T05:35:50;2.30;;;0.50;;
71763;SDS011;59602;52.142;5.408;2023-04-12T05:38:17;0.80;;;0.20;;
71763;SDS011;59602;52.142;5.408;2023-04-12T05:40:44;1.60;;;0.30;;
71763;SDS011;59602;52.142;5.408;2023-04-12T05:43:11;1.02;;;0.30;;
71763;SDS011;59602;52.142;5.408;2023-04-12T05:45:38;1.05;;;0.30;;
71763;SDS011;59602;52.142;5.408;2023-04-12T05:48:06;2.83;;;0.30;;
71763;SDS011;59602;52.142;5.408;2023-04-12T05:50:32;1.63;;;0.40;;
71763;SDS011;59602;52.142;5.408;2023-04-12T05:52:59;1.20;;;0.38;;
71763;SDS011;59602;52.142;5.408;2023-04-12T05:55:27;2.88;;;0.30;;
71763;SDS011;59602;52.142;5.408;2023-04-12T05:57:54;2.15;;;0.22;;
71763;SDS011;59602;52.142;5.408;2023-04-12T06:00:22;0.80;;;0.20;;
71763;SDS011;59602;52.142;5.408;2023-04-12T06:02:49;0.82;;;0.20;;
71763;SDS011;59602;52.142;5.408;2023-04-12T06:05:16;1.15;;;0.30;;
71763;SDS011;59602;52.142;5.408;2023-04-12T06:07:43;3.72;;;1.83;;
71763;SDS011;59602;52.142;5.408;2023-04-12T06:10:14;3.70;;;0.47;;
71763;SDS011;59602;52.142;5.408;2023-04-12T06:12:42;1.50;;;0.30;;
71763;SDS011;59602;52.142;5.408;2023-04-12T06:15:09;2.28;;;0.32;;
71763;SDS011;59602;52.142;5.408;2023-04-12T06:17:36;1.35;;;0.28;;
71763;SDS011;59602;52.142;5.408;2023-04-12T06:20:03;1.30;;;0.50;;
71763;SDS011;59602;52.142;5.408;2023-04-12T06:22:34;1.75;;;0.50;;
71763;SDS011;59602;52.142;5.408;2023-04-12T06:25:01;2.07;;;0.30;;
71763;SDS011;59602;52.142;5.408;2023-04-12T06:27:28;2.08;;;0.30;;
71763;SDS011;59602;52.142;5.408;2023-04-12T06:29:55;1.25;;;0.20;;
71763;SDS011;59602;52.142;5.408;2023-04-12T06:32:22;0.85;;;0.20;;
71763;SDS011;59602;52.142;5.408;2023-04-12T06:34:50;1.13;;;0.20;;
71763;SDS011;59602;52.142;5.408;2023-04-12T06:37:17;1.97;;;0.40;;
71763;SDS011;59602;52.142;5.408;2023-04-12T06:39:43;2.20;;;0.30;;
71763;SDS011;59602;52.142;5.408;2023-04-12T06:42:10;1.30;;;0.30;;
71763;SDS011;59602;52.142;5.408;2023-04-12T06:44:39;1.75;;;0.30;;
71763;SDS011;59602;52.142;5.408;2023-04-12T06:47:06;4.13;;;0.50;;
71763;SDS011;59602;52.142;5.408;2023-04-12T06:49:33;1.50;;;0.30;;
71763;SDS011;59602;52.142;5.408;2023-04-12T06:52:00;1.98;;;0.30;;
71763;SDS011;59602;52.142;5.408;2023-04-12T06:54:26;1.83;;;0.30;;
71763;SDS011;59602;52.142;5.408;2023-04-12T06:56:54;1.30;;;0.30;;
71763;SDS011;59602;52.142;5.408;2023-04-12T06:59:22;1.58;;;0.30;;
71763;SDS011;59602;52.142;5.408;2023-04-12T07:01:49;0.90;;;0.30;;
71763;SDS011;59602;52.142;5.408;2023-04-12T07:04:15;1.17;;;0.50;;
71763;SDS011;59602;52.142;5.408;2023-04-12T07:06:42;1.38;;;0.30;;
71763;SDS011;59602;52.142;5.408;2023-04-12T07:09:09;3.30;;;0.70;;
71763;SDS011;59602;52.142;5.408;2023-04-12T07:11:35;1.30;;;0.35;;
71763;SDS011;59602;52.142;5.408;2023-04-12T07:14:02;1.20;;;0.30;;
71763;SDS011;59602;52.142;5.408;2023-04-12T07:16:29;2.47;;;0.50;;
71763;SDS011;59602;52.142;5.408;2023-04-12T07:18:58;4.45;;;0.50;;
71763;SDS011;59602;52.142;5.408;2023-04-12T07:21:25;3.10;;;0.45;;
71763;SDS011;59602;52.142;5.408;2023-04-12T07:23:53;3.13;;;0.50;;
71763;SDS011;59602;52.142;5.408;2023-04-12T07:26:21;3.10;;;0.60;;
71763;SDS011;59602;52.142;5.408;2023-04-12T07:28:48;2.88;;;0.55;;
71763;SDS011;59602;52.142;5.408;2023-04-12T07:31:14;2.85;;;0.70;;
71763;SDS011;59602;52.142;5.408;2023-04-12T07:33:41;3.35;;;0.80;;
71763;SDS011;59602;52.142;5.408;2023-04-12T07:36:08;4.60;;;0.80;;
71763;SDS011;59602;52.142;5.408;2023-04-12T07:38:36;2.53;;;0.60;;
71763;SDS011;59602;52.142;5.408;2023-04-12T07:41:03;4.75;;;1.13;;
71763;SDS011;59602;52.142;5.408;2023-04-12T07:43:31;4.53;;;0.77;;
71763;SDS011;59602;52.142;5.408;2023-04-12T07:45:58;3.13;;;0.90;;
71763;SDS011;59602;52.142;5.408;2023-04-12T07:48:25;3.78;;;0.93;;
71763;SDS011;59602;52.142;5.408;2023-04-12T07:50:51;2.53;;;0.70;;
71763;SDS011;59602;52.142;5.408;2023-04-12T07:53:20;4.97;;;1.30;;
71763;SDS011;59602;52.142;5.408;2023-04-12T07:55:48;4.00;;;1.23;;
71763;SDS011;59602;52.142;5.408;2023-04-12T07:58:16;2.97;;;0.70;;
71763;SDS011;59602;52.142;5.408;2023-04-12T08:00:44;2.85;;;0.77;;
71763;SDS011;59602;52.142;5.408;2023-04-12T08:03:12;5.30;;;0.83;;
71763;SDS011;59602;52.142;5.408;2023-04-12T08:05:39;3.92;;;0.90;;
71763;SDS011;59602;52.142;5.408;2023-04-12T08:08:07;6.28;;;0.90;;
71763;SDS011;59602;52.142;5.408;2023-04-12T08:10:35;3.00;;;0.90;;
71763;SDS011;59602;52.142;5.408;2023-04-12T08:13:04;7.40;;;1.90;;
71763;SDS011;59602;52.142;5.408;2023-04-12T08:15:32;19.37;;;6.73;;
71763;SDS011;59602;52.142;5.408;2023-04-12T08:18:00;29.08;;;7.70;;
71763;SDS011;59602;52.142;5.408;2023-04-12T08:20:27;17.08;;;4.90;;
71763;SDS011;59602;52.142;5.408;2023-04-12T08:22:53;7.03;;;1.40;;
71763;SDS011;59602;52.142;5.408;2023-04-12T08:25:20;6.35;;;0.98;;
71763;SDS011;59602;52.142;5.408;2023-04-12T08:27:47;6.80;;;1.43;;
71763;SDS011;59602;52.142;5.408;2023-04-12T08:30:15;5.15;;;1.10;;
71763;SDS011;59602;52.142;5.408;2023-04-12T08:32:43;8.55;;;1.90;;
71763;SDS011;59602;52.142;5.408;2023-04-12T08:35:10;5.78;;;0.90;;
71763;SDS011;59602;52.142;5.408;2023-04-12T08:37:37;7.57;;;0.93;;
71763;SDS011;59602;52.142;5.408;2023-04-12T08:40:05;8.37;;;0.80;;
71763;SDS011;59602;52.142;5.408;2023-04-12T08:42:33;7.15;;;0.75;;
71763;SDS011;59602;52.142;5.408;2023-04-12T08:45:03;6.05;;;0.93;;
71763;SDS011;59602;52.142;5.408;2023-04-12T08:47:33;8.20;;;0.73;;
71763;SDS011;59602;52.142;5.408;2023-04-12T08:50:01;9.40;;;1.17;;
71763;SDS011;59602;52.142;5.408;2023-04-12T08:52:31;5.67;;;0.80;;
71763;SDS011;59602;52.142;5.408;2023-04-12T08:55:01;11.48;;;1.00;;
71763;SDS011;59602;52.142;5.408;2023-04-12T08:57:29;8.88;;;1.77;;
71763;SDS011;59602;52.142;5.408;2023-04-12T08:59:59;9.80;;;0.93;;
71763;SDS011;59602;52.142;5.408;2023-04-12T09:02:27;10.75;;;1.33;;
71763;SDS011;59602;52.142;5.408;2023-04-12T09:04:54;6.13;;;0.67;;
71763;SDS011;59602;52.142;5.408;2023-04-12T09:07:21;10.23;;;0.85;;
71763;SDS011;59602;52.142;5.408;2023-04-12T09:09:49;7.30;;;0.90;;
71763;SDS011;59602;52.142;5.408;2023-04-12T09:12:16;7.35;;;0.98;;
71763;SDS011;59602;52.142;5.408;2023-04-12T09:14:45;11.13;;;1.60;;
71763;SDS011;59602;52.142;5.408;2023-04-12T09:17:22;7.63;;;1.47;;
71763;SDS011;59602;52.142;5.408;2023-04-12T09:19:51;7.68;;;0.90;;
71763;SDS011;59602;52.142;5.408;2023-04-12T09:22:18;11.38;;;1.08;;
71763;SDS011;59602;52.142;5.408;2023-04-12T09:24:57;9.27;;;1.30;;
71763;SDS011;59602;52.142;5.408;2023-04-12T09:27:25;6.75;;;0.60;;
71763;SDS011;59602;52.142;5.408;2023-04-12T09:30:06;12.17;;;0.80;;
71763;SDS011;59602;52.142;5.408;2023-04-12T09:32:34;8.57;;;0.70;;
71763;SDS011;59602;52.142;5.408;2023-04-12T09:35:01;7.35;;;1.02;;
71763;SDS011;59602;52.142;5.408;2023-04-12T09:37:31;9.07;;;0.65;;
71763;SDS011;59602;52.142;5.408;2023-04-12T09:39:58;8.00;;;0.93;;
71763;SDS011;59602;52.142;5.408;2023-04-12T09:42:27;7.60;;;0.90;;
71763;SDS011;59602;52.142;5.408;2023-04-12T09:45:00;5.97;;;0.50;;
71763;SDS011;59602;52.142;5.408;2023-04-12T09:47:45;7.18;;;0.63;;
71763;SDS011;59602;52.142;5.408;2023-04-12T09:50:20;6.10;;;0.80;;
71763;SDS011;59602;52.142;5.408;2023-04-12T09:52:48;9.68;;;0.95;;
71763;SDS011;59602;52.142;5.408;2023-04-12T09:55:15;11.50;;;0.97;;
71763;SDS011;59602;52.142;5.408;2023-04-12T09:57:43;11.63;;;0.68;;
71763;SDS011;59602;52.142;5.408;2023-04-12T10:00:16;9.77;;;1.08;;
71763;SDS011;59602;52.142;5.408;2023-04-12T10:02:44;12.43;;;0.68;;
71763;SDS011;59602;52.142;5.408;2023-04-12T10:05:16;8.07;;;0.77;;
71763;SDS011;59602;52.142;5.408;2023-04-12T10:07:45;11.17;;;1.20;;
71763;SDS011;59602;52.142;5.408;2023-04-12T10:10:13;6.50;;;0.80;;
71763;SDS011;59602;52.142;5.408;2023-04-12T10:12:44;7.50;;;0.43;;
71763;SDS011;59602;52.142;5.408;2023-04-12T10:15:12;7.25;;;0.82;;
71763;SDS011;59602;52.142;5.408;2023-04-12T10:17:45;6.95;;;0.50;;
71763;SDS011;59602;52.142;5.408;2023-04-12T10:20:15;7.43;;;1.27;;
71763;SDS011;59602;52.142;5.408;2023-04-12T10:22:53;9.98;;;1.20;;
71763;SDS011;59602;52.142;5.408;2023-04-12T10:25:38;7.53;;;0.70;;
71763;SDS011;59602;52.142;5.408;2023-04-12T10:28:13;10.18;;;0.93;;
71763;SDS011;59602;52.142;5.408;2023-04-12T10:31:00;9.90;;;2.42;;
71763;SDS011;59602;52.142;5.408;2023-04-12T10:33:55;8.17;;;0.97;;
71763;SDS011;59602;52.142;5.408;2023-04-12T10:39:16;12.20;;;1.27;;
71763;SDS011;59602;52.142;5.408;2023-04-12T10:42:23;10.55;;;1.67;;
71763;SDS011;59602;52.142;5.408;2023-04-12T10:44:44;10.60;;;0.77;;
71763;SDS011;59602;52.142;5.408;2023-04-12T10:47:12;8.77;;;0.80;;
71763;SDS011;59602;52.142;5.408;2023-04-12T10:49:40;11.18;;;0.80;;
71763;SDS011;59602;52.142;5.408;2023-04-12T10:55:35;10.00;;;0.70;;
71763;SDS011;59602;52.142;5.408;2023-04-12T10:58:03;8.18;;;0.73;;
71763;SDS011;59602;52.142;5.408;2023-04-12T11:01:08;7.90;;;0.90;;
71763;SDS011;59602;52.142;5.408;2023-04-12T11:03:21;12.05;;;0.73;;
71763;SDS011;59602;52.142;5.408;2023-04-12T11:08:45;11.18;;;0.90;;
71763;SDS011;59602;52.142;5.408;2023-04-12T11:11:24;11.20;;;1.05;;
71763;SDS011;59602;52.142;5.408;2023-04-12T11:13:55;11.77;;;2.23;;
71763;SDS011;59602;52.142;5.408;2023-04-12T11:16:24;10.93;;;0.82;;
71763;SDS011;59602;52.142;5.408;2023-04-12T11:18:52;7.03;;;0.60;;
71763;SDS011;59602;52.142;5.408;2023-04-12T11:21:21;10.50;;;0.68;;
71763;SDS011;59602;52.142;5.408;2023-04-12T11:23:58;9.05;;;0.98;;
71763;SDS011;59602;52.142;5.408;2023-04-12T11:26:28;12.43;;;1.13;;
71763;SDS011;59602;52.142;5.408;2023-04-12T11:29:05;8.43;;;0.88;;
71763;SDS011;59602;52.142;5.408;2023-04-12T11:31:36;9.02;;;0.68;;
71763;SDS011;59602;52.142;5.408;2023-04-12T11:34:04;8.88;;;1.02;;
71763;SDS011;59602;52.142;5.408;2023-04-12T11:36:34;8.95;;;0.88;;
71763;SDS011;59602;52.142;5.408;2023-04-12T11:41:42;18.25;;;0.80;;
71763;SDS011;59602;52.142;5.408;2023-04-12T11:44:17;6.95;;;0.90;;
71763;SDS011;59602;52.142;5.408;2023-04-12T11:46:47;9.23;;;0.63;;
71763;SDS011;59602;52.142;5.408;2023-04-12T11:49:19;9.45;;;0.70;;
71763;SDS011;59602;52.142;5.408;2023-04-12T11:51:59;9.50;;;0.83;;
71763;SDS011;59602;52.142;5.408;2023-04-12T11:54:34;5.70;;;0.90;;
71763;SDS011;59602;52.142;5.408;2023-04-12T11:57:01;7.13;;;0.55;;
71763;SDS011;59602;52.142;5.408;2023-04-12T11:59:32;7.05;;;0.50;;
71763;SDS011;59602;52.142;5.408;2023-04-12T12:02:01;6.65;;;0.30;;
71763;SDS011;59602;52.142;5.408;2023-04-12T12:04:48;6.67;;;0.53;;
71763;SDS011;59602;52.142;5.408;2023-04-12T12:07:40;9.50;;;0.60;;
71763;SDS011;59602;52.142;5.408;2023-04-12T12:10:29;4.88;;;0.30;;
71763;SDS011;59602;52.142;5.408;2023-04-12T12:13:21;7.60;;;0.30;;
71763;SDS011;59602;52.142;5.408;2023-04-12T12:15:50;5.68;;;0.30;;
71763;SDS011;59602;52.142;5.408;2023-04-12T12:18:24;9.30;;;0.30;;
71763;SDS011;59602;52.142;5.408;2023-04-12T12:20:52;8.23;;;0.60;;
71763;SDS011;59602;52.142;5.408;2023-04-12T12:23:30;7.43;;;0.40;;
71763;SDS011;59602;52.142;5.408;2023-04-12T12:26:00;7.50;;;0.30;;
71763;SDS011;59602;52.142;5.408;2023-04-12T12:28:47;5.70;;;0.30;;
71763;SDS011;59602;52.142;5.408;2023-04-12T12:31:17;8.17;;;0.30;;
71763;SDS011;59602;52.142;5.408;2023-04-12T12:33:48;8.40;;;0.43;;
71763;SDS011;59602;52.142;5.408;2023-04-12T12:36:17;5.97;;;0.40;;
71763;SDS011;59602;52.142;5.408;2023-04-12T12:39:02;4.53;;;0.35;;
71763;SDS011;59602;52.142;5.408;2023-04-12T12:41:39;9.45;;;0.70;;
71763;SDS011;59602;52.142;5.408;2023-04-12T12:44:06;2.60;;;0.27;;
71763;SDS011;59602;52.142;5.408;2023-04-12T12:46:33;4.22;;;0.20;;
71763;SDS011;59602;52.142;5.408;2023-04-12T12:49:03;5.47;;;0.30;;
71763;SDS011;59602;52.142;5.408;2023-04-12T12:51:32;3.80;;;0.10;;
71763;SDS011;59602;52.142;5.408;2023-04-12T12:53:59;5.18;;;0.17;;
71763;SDS011;59602;52.142;5.408;2023-04-12T12:56:26;4.47;;;0.30;;
71763;SDS011;59602;52.142;5.408;2023-04-12T12:58:53;2.38;;;0.10;;
71763;SDS011;59602;52.142;5.408;2023-04-12T13:01:19;2.88;;;0.20;;
71763;SDS011;59602;52.142;5.408;2023-04-12T13:04:04;2.88;;;0.40;;
71763;SDS011;59602;52.142;5.408;2023-04-12T13:07:09;5.45;;;0.20;;
71763;SDS011;59602;52.142;5.408;2023-04-12T13:09:27;3.63;;;0.33;;
71763;SDS011;59602;52.142;5.408;2023-04-12T13:12:12;2.47;;;0.20;;
71763;SDS011;59602;52.142;5.408;2023-04-12T13:14:42;2.85;;;0.10;;
71763;SDS011;59602;52.142;5.408;2023-04-12T13:17:09;3.17;;;0.30;;
71763;SDS011;59602;52.142;5.408;2023-04-12T13:19:35;4.47;;;0.30;;
71763;SDS011;59602;52.142;5.408;2023-04-12T13:22:02;4.13;;;0.20;;
71763;SDS011;59602;52.142;5.408;2023-04-12T13:24:29;4.28;;;0.35;;
71763;SDS011;59602;52.142;5.408;2023-04-12T13:26:58;1.73;;;0.25;;
71763;SDS011;59602;52.142;5.408;2023-04-12T13:29:25;2.55;;;0.40;;
71763;SDS011;59602;52.142;5.408;2023-04-12T13:31:53;1.80;;;0.05;;
71763;SDS011;59602;52.142;5.408;2023-04-12T13:34:20;4.93;;;0.10;;
71763;SDS011;59602;52.142;5.408;2023-04-12T13:36:48;4.18;;;0.10;;
71763;SDS011;59602;52.142;5.408;2023-04-12T13:39:15;4.10;;;0.20;;
71763;SDS011;59602;52.142;5.408;2023-04-12T13:41:42;1.88;;;0.10;;
71763;SDS011;59602;52.142;5.408;2023-04-12T13:44:09;2.13;;;0.17;;
71763;SDS011;59602;52.142;5.408;2023-04-12T13:46:43;2.13;;;0.20;;
71763;SDS011;59602;52.142;5.408;2023-04-12T13:49:28;4.15;;;0.15;;
71763;SDS011;59602;52.142;5.408;2023-04-12T13:51:57;1.70;;;0.10;;
71763;SDS011;59602;52.142;5.408;2023-04-12T13:54:25;1.15;;;0.10;;
71763;SDS011;59602;52.142;5.408;2023-04-12T13:56:51;1.80;;;0.10;;
71763;SDS011;59602;52.142;5.408;2023-04-12T13:59:23;1.17;;;0.10;;
71763;SDS011;59602;52.142;5.408;2023-04-12T14:01:50;1.83;;;0.30;;
71763;SDS011;59602;52.142;5.408;2023-04-12T14:04:22;1.85;;;0.10;;
71763;SDS011;59602;52.142;5.408;2023-04-12T14:06:50;3.70;;;0.10;;
71763;SDS011;59602;52.142;5.408;2023-04-12T14:09:21;2.70;;;0.10;;
71763;SDS011;59602;52.142;5.408;2023-04-12T14:11:50;2.03;;;0.10;;
71763;SDS011;59602;52.142;5.408;2023-04-12T14:14:17;1.70;;;0.10;;
71763;SDS011;59602;52.142;5.408;2023-04-12T14:16:44;1.17;;;0.10;;
71763;SDS011;59602;52.142;5.408;2023-04-12T14:19:11;1.15;;;0.10;;
71763;SDS011;59602;52.142;5.408;2023-04-12T14:21:38;2.33;;;0.10;;
71763;SDS011;59602;52.142;5.408;2023-04-12T14:24:05;2.93;;;0.20;;
71763;SDS011;59602;52.142;5.408;2023-04-12T14:26:31;3.08;;;0.28;;
71763;SDS011;59602;52.142;5.408;2023-04-12T14:28:58;2.08;;;0.10;;
71763;SDS011;59602;52.142;5.408;2023-04-12T14:31:26;2.22;;;0.10;;
71763;SDS011;59602;52.142;5.408;2023-04-12T14:33:53;4.43;;;0.50;;
71763;SDS011;59602;52.142;5.408;2023-04-12T14:36:19;1.40;;;0.10;;
71763;SDS011;59602;52.142;5.408;2023-04-12T14:38:46;2.20;;;0.10;;
71763;SDS011;59602;52.142;5.408;2023-04-12T14:41:12;1.90;;;0.10;;
71763;SDS011;59602;52.142;5.408;2023-04-12T14:43:39;2.47;;;0.20;;
71763;SDS011;59602;52.142;5.408;2023-04-12T14:46:06;0.93;;;0.10;;
71763;SDS011;59602;52.142;5.408;2023-04-12T14:48:34;2.37;;;0.10;;
71763;SDS011;59602;52.142;5.408;2023-04-12T14:51:02;1.98;;;0.20;;
71763;SDS011;59602;52.142;5.408;2023-04-12T14:53:29;2.30;;;0.17;;
71763;SDS011;59602;52.142;5.408;2023-04-12T14:55:56;2.25;;;0.10;;
71763;SDS011;59602;52.142;5.408;2023-04-12T14:58:23;1.27;;;0.10;;
71763;SDS011;59602;52.142;5.408;2023-04-12T15:00:51;1.47;;;0.10;;
71763;SDS011;59602;52.142;5.408;2023-04-12T15:03:17;2.60;;;0.10;;
71763;SDS011;59602;52.142;5.408;2023-04-12T15:05:46;1.63;;;0.10;;
71763;SDS011;59602;52.142;5.408;2023-04-12T15:08:13;2.08;;;0.20;;
71763;SDS011;59602;52.142;5.408;2023-04-12T15:10:39;1.90;;;0.10;;
71763;SDS011;59602;52.142;5.408;2023-04-12T15:13:06;0.90;;;0.10;;